createdAt,value
2023-02-14T00:01:30.768Z,8.65
2023-02-14T00:04:13.691Z,9.65
2023-02-14T00:09:29.601Z,8.93
2023-02-14T00:12:03.861Z,9.13
2023-02-14T00:15:07.327Z,8.52
2023-02-14T00:20:11.383Z,13.18
2023-02-14T00:22:51.633Z,15.00
2023-02-14T00:25:44.022Z,13.35
2023-02-14T00:31:20.341Z,11.65
2023-02-14T00:39:47.060Z,13.63
2023-02-14T00:42:26.136Z,14.05
2023-02-14T00:44:56.212Z,13.30
2023-02-14T00:51:00.932Z,12.40
2023-02-14T00:53:59.360Z,11.60
2023-02-14T01:02:29.033Z,10.32
2023-02-14T01:04:59.328Z,11.52
2023-02-14T01:07:53.802Z,9.35
2023-02-14T01:10:32.459Z,11.10
2023-02-14T01:22:14.465Z,11.63
2023-02-14T01:27:51.364Z,10.90
2023-02-14T01:30:23.494Z,11.30
2023-02-14T01:33:01.358Z,10.18
2023-02-14T01:36:00.460Z,10.20
2023-02-14T01:38:27.158Z,9.57
2023-02-14T01:40:56.256Z,9.60
2023-02-14T01:43:27.218Z,10.23
2023-02-14T01:49:37.454Z,9.50
2023-02-14T01:52:27.342Z,10.43
2023-02-14T01:58:09.922Z,9.88
2023-02-14T02:04:04.818Z,9.00
2023-02-14T02:21:21.091Z,9.35
2023-02-14T02:24:03.894Z,8.60
2023-02-14T02:26:54.887Z,9.02
2023-02-14T02:29:44.872Z,8.88
2023-02-14T02:33:01.500Z,9.68
2023-02-14T02:36:51.326Z,8.48
2023-02-14T02:42:36.494Z,8.65
2023-02-14T02:48:21.011Z,10.20
2023-02-14T02:54:15.842Z,13.15
2023-02-14T02:57:24.972Z,12.35
2023-02-14T02:59:56.055Z,10.80
2023-02-14T03:02:55.186Z,9.88
2023-02-14T03:05:23.877Z,8.63
2023-02-14T03:07:53.022Z,10.15
2023-02-14T03:10:35.265Z,10.38
2023-02-14T03:13:34.771Z,9.65
2023-02-14T03:16:34.241Z,8.88
2023-02-14T03:19:43.584Z,10.07
2023-02-14T03:22:41.803Z,9.98
2023-02-14T03:25:35.172Z,9.52
2023-02-14T03:28:34.105Z,9.25
2023-02-14T03:31:35.399Z,8.23
2023-02-14T03:34:26.427Z,8.07
2023-02-14T03:37:26.495Z,9.65
2023-02-14T03:40:10.017Z,8.55
2023-02-14T03:42:48.067Z,9.52
2023-02-14T03:45:51.387Z,10.20
2023-02-14T03:48:58.081Z,9.93
2023-02-14T03:51:55.893Z,10.07
2023-02-14T03:57:24.286Z,9.30
2023-02-14T03:59:53.497Z,8.73
2023-02-14T04:02:39.023Z,9.70
2023-02-14T04:05:22.401Z,9.52
2023-02-14T04:13:39.457Z,10.02
2023-02-14T04:16:08.643Z,11.15
2023-02-14T04:18:58.209Z,12.35
2023-02-14T04:21:34.399Z,11.02
2023-02-14T04:27:12.201Z,11.77
2023-02-14T04:29:56.719Z,10.43
2023-02-14T04:32:39.449Z,11.40
2023-02-14T04:35:11.463Z,11.30
2023-02-14T04:40:35.897Z,10.10
2023-02-14T04:49:04.539Z,11.68
2023-02-14T04:51:32.539Z,11.82
2023-02-14T04:54:02.034Z,12.15
2023-02-14T04:56:31.296Z,11.68
2023-02-14T04:59:03.874Z,9.82
2023-02-14T05:03:58.136Z,9.70
2023-02-14T05:06:30.950Z,10.90
2023-02-14T05:09:23.482Z,12.23
2023-02-14T05:14:37.337Z,12.45
2023-02-14T05:17:04.216Z,12.60
2023-02-14T05:19:36.241Z,13.05
2023-02-14T05:22:09.005Z,13.15
2023-02-14T05:24:36.314Z,13.05
2023-02-14T05:27:03.737Z,18.42
2023-02-14T05:29:32.116Z,11.60
2023-02-14T05:32:24.643Z,13.15
2023-02-14T05:34:54.919Z,11.68
2023-02-14T05:42:55.207Z,13.40
2023-02-14T05:45:38.234Z,14.20
2023-02-14T05:48:08.630Z,16.27
2023-02-14T05:51:00.359Z,16.55
2023-02-14T05:53:27.297Z,15.73
2023-02-14T05:55:54.489Z,16.23
2023-02-14T06:01:19.767Z,16.45
2023-02-14T06:04:33.807Z,16.48
2023-02-14T06:07:10.751Z,16.30
2023-02-14T06:09:40.050Z,15.95
2023-02-14T06:12:29.844Z,15.27
2023-02-14T06:14:56.495Z,16.67
2023-02-14T06:17:32.355Z,15.23
2023-02-14T06:20:08.990Z,17.33
2023-02-14T06:22:52.735Z,15.43
2023-02-14T06:25:46.354Z,15.27
2023-02-14T06:28:14.898Z,14.10
2023-02-14T06:30:44.069Z,14.55
2023-02-14T06:33:15.762Z,16.60
2023-02-14T06:35:45.653Z,18.50
2023-02-14T06:38:14.790Z,19.52
2023-02-14T06:40:45.755Z,19.40
2023-02-14T06:43:15.438Z,19.08
2023-02-14T06:45:43.664Z,19.13
2023-02-14T06:48:10.563Z,17.15
2023-02-14T06:50:38.339Z,18.58
2023-02-14T06:53:07.014Z,18.30
2023-02-14T06:55:36.261Z,17.70
2023-02-14T06:58:07.570Z,15.95
2023-02-14T07:00:34.755Z,16.52
2023-02-14T07:03:03.262Z,18.50
2023-02-14T07:05:36.686Z,17.52
2023-02-14T07:08:07.872Z,16.52
2023-02-14T07:10:39.446Z,16.35
2023-02-14T07:21:35.448Z,18.13
2023-02-14T07:24:04.714Z,17.67
2023-02-14T07:26:32.801Z,18.02
2023-02-14T07:29:04.384Z,17.42
2023-02-14T07:31:34.136Z,16.45
2023-02-14T07:34:01.121Z,15.20
2023-02-14T07:36:29.236Z,15.75
2023-02-14T07:38:58.406Z,15.75
2023-02-14T07:41:37.693Z,14.55
2023-02-14T07:46:49.607Z,14.25
2023-02-14T07:49:17.746Z,15.00
2023-02-14T07:51:53.340Z,15.25
2023-02-14T07:54:20.405Z,16.50
2023-02-14T07:56:50.404Z,16.52
2023-02-14T07:59:25.637Z,15.57
2023-02-14T08:02:01.938Z,15.48
2023-02-14T08:04:32.940Z,15.93
2023-02-14T08:07:02.390Z,18.45
2023-02-14T08:09:32.547Z,16.73
2023-02-14T08:12:18.812Z,16.70
2023-02-14T08:14:48.900Z,17.50
2023-02-14T08:17:16.656Z,16.83
2023-02-14T08:19:47.995Z,20.75
2023-02-14T08:25:03.269Z,18.15
2023-02-14T08:27:32.525Z,18.48
2023-02-14T08:30:03.587Z,18.00
2023-02-14T08:32:30.591Z,18.35
2023-02-14T08:35:03.354Z,17.35
2023-02-14T08:37:30.658Z,16.30
2023-02-14T08:39:57.408Z,16.77
2023-02-14T08:42:24.228Z,18.92
2023-02-14T08:44:52.224Z,19.08
2023-02-14T08:47:19.508Z,16.58
2023-02-14T08:49:53.359Z,17.63
2023-02-14T08:55:29.442Z,15.93
2023-02-14T08:57:59.950Z,14.68
2023-02-14T09:00:27.268Z,15.38
2023-02-14T09:05:44.839Z,15.00
2023-02-14T09:08:16.739Z,12.75
2023-02-14T09:10:46.711Z,14.67
2023-02-14T09:13:16.366Z,15.82
2023-02-14T09:18:39.817Z,14.50
2023-02-14T09:21:38.537Z,15.00
2023-02-14T09:24:06.387Z,13.85
2023-02-14T09:26:42.524Z,14.50
2023-02-14T09:29:11.527Z,14.65
2023-02-14T09:31:41.045Z,14.88
2023-02-14T09:34:31.973Z,15.17
2023-02-14T09:37:06.361Z,15.02
2023-02-14T09:39:33.105Z,14.27
2023-02-14T09:42:23.509Z,12.93
2023-02-14T09:45:15.624Z,14.27
2023-02-14T09:48:21.306Z,10.50
2023-02-14T09:51:19.388Z,14.43
2023-02-14T09:53:51.705Z,14.98
2023-02-14T09:56:51.370Z,13.52
2023-02-14T09:59:54.337Z,13.73
2023-02-14T10:02:50.319Z,13.25
2023-02-14T10:05:26.193Z,12.77
2023-02-14T10:08:23.385Z,12.80
2023-02-14T10:11:03.962Z,13.73
2023-02-14T10:13:43.105Z,13.85
2023-02-14T10:16:26.994Z,13.48
2023-02-14T10:19:03.155Z,12.45
2023-02-14T10:21:55.824Z,13.88
2023-02-14T10:24:46.557Z,13.32
2023-02-14T10:28:00.524Z,14.50
2023-02-14T10:30:37.930Z,13.77
2023-02-14T10:33:24.691Z,13.77
2023-02-14T10:35:59.566Z,14.13
2023-02-14T10:41:40.438Z,12.13
2023-02-14T10:44:17.082Z,13.65
2023-02-14T10:50:08.660Z,14.07
2023-02-14T10:53:04.081Z,13.60
2023-02-14T10:55:39.215Z,14.23
2023-02-14T10:58:09.208Z,12.63
2023-02-14T11:00:40.434Z,14.18
2023-02-14T11:03:10.109Z,13.52
2023-02-14T11:05:46.982Z,12.77
2023-02-14T11:08:36.851Z,13.20
2023-02-14T11:11:37.050Z,13.05
2023-02-14T11:14:32.027Z,14.85
2023-02-14T11:17:22.061Z,14.35
2023-02-14T11:19:58.371Z,13.27
2023-02-14T11:22:30.278Z,14.00
2023-02-14T11:25:21.530Z,13.25
2023-02-14T11:27:51.595Z,13.60
2023-02-14T11:30:32.318Z,14.45
2023-02-14T11:33:03.571Z,13.00
2023-02-14T11:56:00.048Z,12.93
2023-02-14T11:58:35.824Z,13.38
2023-02-14T12:01:07.006Z,12.95
2023-02-14T12:06:35.952Z,14.18
2023-02-14T12:09:12.895Z,13.50
2023-02-14T12:11:39.604Z,13.05
2023-02-14T12:14:33.220Z,13.23
2023-02-14T12:17:33.649Z,13.38
2023-02-14T12:20:16.210Z,13.93
2023-02-14T12:22:57.219Z,13.93
2023-02-14T12:25:50.385Z,13.45
2023-02-14T12:28:41.529Z,12.93
2023-02-14T12:31:33.268Z,11.75
2023-02-14T12:34:09.912Z,12.70
2023-02-14T12:36:58.180Z,12.57
2023-02-14T12:45:42.800Z,13.02
2023-02-14T12:54:06.546Z,13.55
2023-02-14T12:56:51.931Z,13.18
2023-02-14T12:59:41.815Z,13.60
2023-02-14T13:02:45.838Z,13.93
2023-02-14T13:05:37.687Z,14.30
2023-02-14T13:08:13.204Z,13.95
2023-02-14T13:10:47.043Z,13.85
2023-02-14T13:13:36.488Z,15.13
2023-02-14T13:16:45.492Z,12.98
2023-02-14T13:19:49.151Z,14.15
2023-02-14T13:22:23.223Z,15.38
2023-02-14T13:27:40.042Z,14.48
2023-02-14T13:30:16.203Z,13.32
2023-02-14T13:32:46.272Z,14.88
2023-02-14T13:35:17.578Z,13.25
2023-02-14T13:38:04.097Z,14.30
2023-02-14T13:41:07.574Z,15.80
2023-02-14T13:44:03.702Z,15.30
2023-02-14T13:46:34.789Z,13.23
2023-02-14T13:49:21.411Z,13.93
2023-02-14T13:51:54.041Z,15.50
2023-02-14T13:57:00.714Z,14.25
2023-02-14T13:59:37.155Z,13.68
2023-02-14T14:02:22.628Z,13.93
2023-02-14T14:08:17.626Z,13.82
2023-02-14T14:10:46.120Z,14.18
2023-02-14T14:19:17.194Z,15.52
2023-02-14T14:22:02.945Z,13.98
2023-02-14T14:24:36.705Z,13.85
2023-02-14T14:27:28.745Z,14.10
2023-02-14T14:32:55.985Z,13.73
2023-02-14T14:35:24.534Z,14.18
2023-02-14T14:40:51.011Z,13.82
2023-02-14T14:43:32.540Z,14.55
2023-02-14T14:46:10.704Z,14.38
2023-02-14T14:48:45.601Z,14.23
2023-02-14T14:54:11.880Z,14.68
2023-02-14T14:59:44.981Z,14.07
2023-02-14T15:02:21.878Z,13.13
2023-02-14T15:04:55.917Z,14.85
2023-02-14T15:07:33.063Z,13.52
2023-02-14T15:10:03.620Z,13.55
2023-02-14T15:12:44.929Z,15.00
2023-02-14T15:15:16.039Z,14.70
2023-02-14T15:17:44.383Z,14.68
2023-02-14T15:23:24.893Z,14.18
2023-02-14T15:25:52.215Z,14.07
2023-02-14T15:28:33.381Z,13.90
2023-02-14T15:31:06.652Z,14.20
2023-02-14T15:33:44.479Z,16.08
2023-02-14T15:36:20.306Z,13.45
2023-02-14T15:38:47.253Z,15.35
2023-02-14T15:41:19.466Z,14.88
2023-02-14T15:43:53.819Z,14.77
2023-02-14T15:46:31.481Z,14.00
2023-02-14T15:51:59.770Z,15.05
2023-02-14T16:00:16.263Z,14.70
2023-02-14T16:02:48.432Z,15.10
2023-02-14T16:05:20.042Z,19.00
2023-02-14T16:08:20.998Z,15.65
2023-02-14T16:11:00.810Z,14.88
2023-02-14T16:13:38.090Z,14.82
2023-02-14T16:16:10.496Z,15.20
2023-02-14T16:18:42.312Z,15.27
2023-02-14T16:24:14.720Z,14.60
2023-02-14T16:29:58.644Z,14.48
2023-02-14T16:32:36.942Z,14.60
2023-02-14T16:35:17.432Z,14.57
2023-02-14T16:40:45.046Z,14.88
2023-02-14T16:43:22.324Z,14.75
2023-02-14T16:45:52.207Z,17.27
2023-02-14T16:48:21.214Z,14.32
2023-02-14T16:50:51.858Z,14.60
2023-02-14T16:53:24.955Z,15.60
2023-02-14T16:55:53.668Z,14.02
2023-02-14T16:58:32.328Z,18.50
2023-02-14T17:01:02.269Z,15.15
2023-02-14T17:03:32.197Z,14.65
2023-02-14T17:06:00.519Z,15.57
2023-02-14T17:08:31.195Z,16.90
2023-02-14T17:11:01.380Z,17.58
2023-02-14T17:13:54.913Z,24.20
2023-02-14T17:16:22.444Z,27.27
2023-02-14T17:18:55.099Z,31.08
2023-02-14T17:21:24.012Z,32.85
2023-02-14T17:23:51.069Z,27.95
2023-02-14T17:26:19.174Z,23.90
2023-02-14T17:28:46.081Z,25.73
2023-02-14T17:31:15.341Z,20.70
2023-02-14T17:33:43.081Z,23.52
2023-02-14T17:36:16.262Z,23.63
2023-02-14T17:38:43.142Z,23.95
2023-02-14T17:41:28.527Z,27.75
2023-02-14T17:43:59.502Z,25.42
2023-02-14T17:46:27.968Z,24.77
2023-02-14T17:48:55.372Z,26.85
2023-02-14T17:51:34.160Z,28.30
2023-02-14T17:54:00.904Z,34.38
2023-02-14T17:56:32.065Z,33.08
2023-02-14T17:58:59.090Z,35.47
2023-02-14T18:01:30.678Z,33.00
2023-02-14T18:04:26.600Z,31.40
2023-02-14T18:06:56.406Z,26.85
2023-02-14T18:09:25.004Z,25.42
2023-02-14T18:11:54.806Z,30.48
2023-02-14T18:14:24.795Z,28.17
2023-02-14T18:16:54.659Z,25.50
2023-02-14T18:19:23.972Z,23.75
2023-02-14T18:21:54.151Z,24.67
2023-02-14T18:24:23.254Z,26.45
2023-02-14T18:27:00.423Z,29.60
2023-02-14T18:29:28.463Z,30.30
2023-02-14T18:31:55.214Z,35.97
2023-02-14T18:34:24.848Z,44.90
2023-02-14T18:36:51.728Z,38.60
2023-02-14T18:39:19.669Z,28.83
2023-02-14T18:41:48.266Z,20.15
2023-02-14T18:44:23.995Z,20.52
2023-02-14T18:46:55.377Z,17.55
2023-02-14T18:49:22.609Z,17.83
2023-02-14T18:51:58.053Z,16.48
2023-02-14T18:54:26.156Z,16.98
2023-02-14T18:56:54.658Z,16.77
2023-02-14T18:59:21.572Z,21.45
2023-02-14T19:01:48.497Z,19.13
2023-02-14T19:04:17.487Z,16.63
2023-02-14T19:06:48.626Z,14.98
2023-02-14T19:09:18.781Z,13.20
2023-02-14T19:11:46.228Z,13.73
2023-02-14T19:14:13.153Z,14.27
2023-02-14T19:16:53.332Z,16.05
2023-02-14T19:19:25.184Z,17.15
2023-02-14T19:21:52.201Z,22.08
2023-02-14T19:24:20.541Z,23.23
2023-02-14T19:26:49.532Z,23.00
2023-02-14T19:29:17.852Z,23.33
2023-02-14T19:31:48.111Z,24.50
2023-02-14T19:34:30.861Z,22.40
2023-02-14T19:37:03.814Z,23.33
2023-02-14T19:39:31.409Z,20.38
2023-02-14T19:42:03.309Z,20.20
2023-02-14T19:44:33.019Z,19.42
2023-02-14T19:47:00.364Z,19.67
2023-02-14T19:49:28.091Z,20.00
2023-02-14T19:51:55.792Z,17.40
2023-02-14T19:54:24.851Z,23.27
2023-02-14T19:56:54.667Z,28.90
2023-02-14T19:59:22.085Z,26.48
2023-02-14T20:01:54.490Z,27.25
2023-02-14T20:04:27.053Z,26.63
2023-02-14T20:06:54.787Z,26.40
2023-02-14T20:09:24.925Z,20.27
2023-02-14T20:11:55.924Z,19.83
2023-02-14T20:14:27.444Z,19.33
2023-02-14T20:17:00.828Z,19.08
2023-02-14T20:19:34.448Z,23.88
2023-02-14T20:22:08.421Z,19.60
2023-02-14T20:27:04.024Z,17.10
2023-02-14T20:29:59.765Z,15.18
2023-02-14T20:32:29.797Z,17.30
2023-02-14T20:34:58.819Z,18.50
2023-02-14T20:37:50.172Z,19.10
2023-02-14T20:44:38.071Z,14.52
2023-02-14T20:47:12.380Z,14.95
2023-02-14T20:49:44.009Z,15.55
2023-02-14T20:52:12.723Z,15.00
2023-02-14T20:54:39.530Z,16.13
2023-02-14T20:57:09.420Z,20.88
2023-02-14T20:59:45.998Z,20.15
2023-02-14T21:02:12.758Z,17.55
2023-02-14T21:04:39.574Z,21.55
2023-02-14T21:07:09.486Z,17.88
2023-02-14T21:09:38.583Z,22.50
2023-02-14T21:12:06.653Z,21.67
2023-02-14T21:14:33.566Z,22.90
2023-02-14T21:17:00.149Z,22.95
2023-02-14T21:19:32.773Z,24.05
2023-02-14T21:27:50.495Z,19.92
2023-02-14T21:34:04.461Z,14.50
2023-02-14T21:42:52.479Z,18.17
2023-02-14T21:45:40.513Z,15.88
2023-02-14T21:52:02.462Z,17.65
2023-02-14T21:54:29.382Z,18.13
2023-02-14T21:56:56.212Z,20.13
2023-02-14T21:59:27.580Z,18.52
2023-02-14T22:04:55.541Z,20.35
2023-02-14T22:07:27.382Z,22.35
2023-02-14T22:09:57.196Z,22.00
2023-02-14T22:12:28.520Z,19.92
2023-02-14T22:15:00.649Z,20.13
2023-02-14T22:17:29.962Z,21.65
2023-02-14T22:19:59.200Z,20.90
2023-02-14T22:22:27.106Z,20.95
2023-02-14T22:24:53.670Z,19.13
2023-02-14T22:27:20.262Z,19.75
2023-02-14T22:29:49.251Z,20.40
2023-02-14T22:32:21.803Z,19.77
2023-02-14T22:34:51.109Z,17.15
2023-02-14T22:37:27.550Z,20.40
2023-02-14T22:40:01.665Z,21.42
2023-02-14T22:42:30.698Z,20.40
2023-02-14T22:44:57.375Z,25.10
2023-02-14T22:47:26.145Z,22.02
2023-02-14T22:49:52.764Z,23.83
2023-02-14T22:52:19.411Z,25.10
2023-02-14T22:54:55.397Z,19.52
2023-02-14T22:57:38.384Z,18.75
2023-02-14T23:00:10.836Z,20.08
2023-02-14T23:05:26.704Z,19.52
2023-02-14T23:07:54.618Z,18.65
2023-02-14T23:10:21.328Z,20.25
2023-02-14T23:13:09.197Z,19.08
2023-02-14T23:15:58.945Z,18.90
2023-02-14T23:18:44.343Z,18.40
2023-02-14T23:21:40.701Z,19.65
2023-02-14T23:24:07.434Z,19.05
2023-02-14T23:26:37.373Z,19.55
2023-02-14T23:29:04.173Z,18.95
2023-02-14T23:31:31.986Z,18.98
2023-02-14T23:33:58.760Z,19.65
2023-02-14T23:36:28.778Z,19.35
2023-02-14T23:38:57.713Z,18.83
2023-02-14T23:41:44.928Z,21.00
2023-02-14T23:44:11.595Z,18.60
2023-02-14T23:46:41.915Z,18.58
2023-02-14T23:49:14.350Z,20.33
2023-02-14T23:51:42.986Z,19.05
2023-02-14T23:54:15.667Z,18.63
